createdAt,value
2019-03-18T00:00:47.346Z,47.57
2019-03-18T00:03:14.756Z,48.65
2019-03-18T00:05:42.259Z,49.38
2019-03-18T00:08:09.747Z,49.77
2019-03-18T00:10:37.094Z,49.74
2019-03-18T00:13:04.744Z,50.16
2019-03-18T00:15:32.361Z,50.17
2019-03-18T00:17:59.829Z,51.10
2019-03-18T00:20:27.295Z,51.57
2019-03-18T00:22:54.834Z,51.98
2019-03-18T00:25:22.248Z,52.38
2019-03-18T00:27:49.756Z,52.62
2019-03-18T00:30:17.469Z,52.61
2019-03-18T00:32:44.858Z,52.96
2019-03-18T00:35:12.537Z,52.78
2019-03-18T00:37:40.021Z,53.08
2019-03-18T00:40:08.422Z,53.20
2019-03-18T00:42:35.866Z,53.54
2019-03-18T00:45:14.160Z,53.95
2019-03-18T00:47:32.839Z,54.41
2019-03-18T00:50:00.438Z,55.25
2019-03-18T00:52:28.002Z,55.07
2019-03-18T00:54:55.955Z,55.11
2019-03-18T00:57:23.493Z,55.36
2019-03-18T00:59:51.111Z,53.64
2019-03-18T01:02:18.597Z,53.19
2019-03-18T01:04:46.200Z,50.22
2019-03-18T01:07:13.685Z,51.11
2019-03-18T01:09:42.531Z,50.24
2019-03-18T01:12:10.080Z,50.86
2019-03-18T01:14:37.563Z,49.29
2019-03-18T01:17:05.025Z,49.56
2019-03-18T01:19:32.530Z,50.53
2019-03-18T01:21:59.967Z,48.63
2019-03-18T01:24:27.533Z,48.55
2019-03-18T01:26:54.999Z,47.07
2019-03-18T01:29:22.398Z,47.13
2019-03-18T01:31:49.832Z,47.25
2019-03-18T01:34:17.330Z,46.67
2019-03-18T01:36:44.745Z,46.39
2019-03-18T01:39:12.177Z,46.50
2019-03-18T01:41:39.635Z,46.17
2019-03-18T01:44:06.994Z,46.35
2019-03-18T01:46:34.513Z,46.06
2019-03-18T01:49:01.952Z,46.02
2019-03-18T01:51:29.446Z,46.69
2019-03-18T01:53:57.046Z,46.31
2019-03-18T01:56:24.590Z,46.62
2019-03-18T01:58:52.004Z,46.12
2019-03-18T02:01:19.494Z,46.92
2019-03-18T02:03:46.955Z,48.28
2019-03-18T02:06:14.427Z,49.95
2019-03-18T02:08:41.819Z,51.34
2019-03-18T02:11:09.245Z,52.55
2019-03-18T02:13:36.776Z,52.09
2019-03-18T02:16:04.137Z,52.86
2019-03-18T02:18:31.614Z,52.56
2019-03-18T02:20:59.066Z,52.84
2019-03-18T02:23:26.457Z,53.93
2019-03-18T02:25:54.398Z,53.49
2019-03-18T02:28:21.846Z,53.08
2019-03-18T02:30:49.210Z,54.71
2019-03-18T02:33:16.674Z,56.33
2019-03-18T02:35:44.133Z,57.30
2019-03-18T02:38:11.533Z,58.89
2019-03-18T02:40:38.964Z,59.24
2019-03-18T02:43:06.413Z,60.12
2019-03-18T02:45:33.857Z,60.33
2019-03-18T02:48:01.218Z,61.94
2019-03-18T02:50:28.673Z,61.07
2019-03-18T02:52:56.130Z,60.81
2019-03-18T02:55:23.720Z,60.20
2019-03-18T02:57:51.236Z,60.94
2019-03-18T03:00:18.713Z,60.68
2019-03-18T03:02:46.151Z,59.02
2019-03-18T03:05:14.181Z,57.51
2019-03-18T03:07:41.651Z,56.94
2019-03-18T03:10:09.532Z,55.84
2019-03-18T03:12:37.025Z,54.76
2019-03-18T03:15:04.741Z,56.43
2019-03-18T03:17:32.214Z,57.87
2019-03-18T03:19:59.610Z,56.79
2019-03-18T03:22:28.239Z,57.32
2019-03-18T03:24:55.665Z,57.31
2019-03-18T03:27:23.051Z,56.49
2019-03-18T03:29:50.496Z,56.03
2019-03-18T03:32:17.961Z,56.40
2019-03-18T03:34:45.323Z,54.96
2019-03-18T03:37:12.830Z,56.51
2019-03-18T03:39:40.256Z,59.29
2019-03-18T03:42:07.764Z,59.38
2019-03-18T03:44:35.340Z,59.75
2019-03-18T03:47:02.946Z,59.39
2019-03-18T03:49:30.361Z,58.90
2019-03-18T03:51:57.818Z,58.75
2019-03-18T03:54:25.248Z,60.71
2019-03-18T03:56:53.083Z,59.76
2019-03-18T03:59:20.638Z,59.80
2019-03-18T04:01:48.400Z,60.08
2019-03-18T04:04:15.777Z,58.73
2019-03-18T04:06:43.254Z,59.82
2019-03-18T04:09:10.773Z,59.60
2019-03-18T04:11:38.213Z,58.71
2019-03-18T04:14:05.652Z,59.51
2019-03-18T04:16:33.153Z,57.94
2019-03-18T04:19:00.538Z,58.30
2019-03-18T04:21:28.079Z,57.19
2019-03-18T04:23:55.521Z,57.62
2019-03-18T04:26:22.894Z,58.00
2019-03-18T04:28:50.341Z,57.06
2019-03-18T04:31:17.812Z,56.69
2019-03-18T04:33:45.222Z,56.02
2019-03-18T04:36:12.680Z,55.73
2019-03-18T04:38:40.125Z,55.25
2019-03-18T04:41:07.556Z,54.98
2019-03-18T04:43:35.059Z,54.42
2019-03-18T04:46:02.504Z,54.57
2019-03-18T04:48:29.930Z,54.89
2019-03-18T04:50:57.932Z,54.97
2019-03-18T04:53:25.946Z,55.09
2019-03-18T04:55:53.866Z,53.85
2019-03-18T04:58:21.420Z,53.42
2019-03-18T05:00:48.830Z,54.13
2019-03-18T05:03:16.334Z,53.23
2019-03-18T05:05:44.137Z,53.14
2019-03-18T05:08:11.645Z,51.30
2019-03-18T05:10:39.120Z,50.95
2019-03-18T05:13:06.600Z,50.36
2019-03-18T05:15:34.294Z,50.95
2019-03-18T05:18:01.782Z,52.85
2019-03-18T05:20:29.285Z,52.47
2019-03-18T05:22:56.651Z,52.94
2019-03-18T05:25:24.134Z,53.52
2019-03-18T05:27:51.599Z,53.53
2019-03-18T05:30:19.008Z,54.99
2019-03-18T05:32:46.507Z,54.73
2019-03-18T05:35:14.060Z,55.30
2019-03-18T05:37:41.502Z,54.87
2019-03-18T05:40:09.208Z,55.13
2019-03-18T05:42:36.997Z,55.13
2019-03-18T05:45:04.623Z,55.64
2019-03-18T05:47:39.168Z,55.57
2019-03-18T05:50:01.551Z,55.76
2019-03-18T05:52:28.996Z,55.49
2019-03-18T05:54:56.481Z,55.16
2019-03-18T05:57:26.085Z,55.65
2019-03-18T05:59:53.379Z,54.86
2019-03-18T06:02:20.928Z,54.28
2019-03-18T06:04:48.421Z,53.42
2019-03-18T06:07:15.890Z,52.84
2019-03-18T06:09:43.383Z,53.45
2019-03-18T06:12:10.830Z,52.60
2019-03-18T06:14:38.279Z,51.86
2019-03-18T06:17:05.724Z,51.90
2019-03-18T06:19:33.092Z,52.20
2019-03-18T06:22:00.589Z,51.25
2019-03-18T06:24:28.246Z,51.37
2019-03-18T06:26:55.688Z,51.55
2019-03-18T06:29:23.149Z,51.74
2019-03-18T06:31:51.045Z,52.57
2019-03-18T06:34:18.512Z,53.38
2019-03-18T06:36:45.965Z,53.47
2019-03-18T06:39:13.412Z,53.66
2019-03-18T06:41:40.892Z,53.02
2019-03-18T06:44:08.365Z,51.80
2019-03-18T06:46:35.758Z,52.79
2019-03-18T06:49:03.311Z,52.93
2019-03-18T06:51:30.853Z,51.03
2019-03-18T06:53:58.335Z,50.91
2019-03-18T06:56:25.917Z,51.15
2019-03-18T06:58:53.380Z,51.04
2019-03-18T07:01:21.203Z,50.72
2019-03-18T07:03:48.610Z,50.55
2019-03-18T07:06:16.193Z,50.05
2019-03-18T07:08:43.685Z,49.16
2019-03-18T07:11:11.167Z,48.59
2019-03-18T07:13:38.682Z,48.23
2019-03-18T07:16:06.223Z,48.11
2019-03-18T07:18:33.743Z,47.51
2019-03-18T07:21:01.267Z,46.71
2019-03-18T07:23:28.750Z,45.95
2019-03-18T07:25:56.189Z,45.11
2019-03-18T07:28:23.634Z,45.39
2019-03-18T07:30:51.123Z,43.95
2019-03-18T07:33:18.590Z,44.11
2019-03-18T07:35:45.989Z,42.91
2019-03-18T07:38:13.430Z,43.29
2019-03-18T07:40:40.878Z,42.79
2019-03-18T07:43:08.316Z,41.66
2019-03-18T07:45:35.832Z,41.52
2019-03-18T07:50:46.153Z,41.21
2019-03-18T07:53:13.673Z,40.74
2019-03-18T07:55:41.105Z,40.25
2019-03-18T07:58:08.590Z,39.81
2019-03-18T08:00:36.083Z,40.06
2019-03-18T08:03:03.748Z,39.56
2019-03-18T08:05:31.223Z,38.96
2019-03-18T08:07:58.694Z,38.98
2019-03-18T08:10:26.206Z,39.35
2019-03-18T08:12:53.690Z,38.77
2019-03-18T08:15:21.131Z,38.39
2019-03-18T08:17:48.640Z,37.94
2019-03-18T08:20:16.140Z,37.27
2019-03-18T08:22:43.566Z,37.42
2019-03-18T08:25:11.185Z,37.63
2019-03-18T08:27:38.681Z,36.85
2019-03-18T08:30:06.986Z,36.86
2019-03-18T08:32:34.396Z,37.16
2019-03-18T08:35:01.897Z,36.39
2019-03-18T08:37:29.399Z,35.40
2019-03-18T08:39:56.847Z,35.20
2019-03-18T08:42:24.290Z,35.36
2019-03-18T08:44:51.809Z,34.90
2019-03-18T08:47:19.283Z,32.69
2019-03-18T08:49:46.818Z,34.40
2019-03-18T08:52:14.267Z,34.87
2019-03-18T08:54:41.717Z,34.24
2019-03-18T08:57:09.399Z,34.48
2019-03-18T08:59:36.956Z,34.89
2019-03-18T09:02:04.458Z,34.75
2019-03-18T09:04:31.905Z,35.34
2019-03-18T09:06:59.456Z,35.61
2019-03-18T09:09:26.974Z,35.43
2019-03-18T09:11:54.413Z,34.56
2019-03-18T09:14:21.911Z,34.13
2019-03-18T09:16:49.455Z,33.91
2019-03-18T09:19:16.902Z,33.62
2019-03-18T09:21:44.388Z,33.00
2019-03-18T09:24:11.869Z,32.79
2019-03-18T09:26:39.390Z,33.12
2019-03-18T09:29:06.922Z,32.55
2019-03-18T09:31:34.458Z,32.17
2019-03-18T09:34:02.048Z,31.54
2019-03-18T09:36:29.645Z,30.77
2019-03-18T09:38:57.157Z,30.03
2019-03-18T09:41:24.695Z,30.15
2019-03-18T09:43:52.219Z,29.41
2019-03-18T09:46:19.689Z,29.40
2019-03-18T09:48:47.121Z,29.85
2019-03-18T09:51:14.633Z,29.56
2019-03-18T09:53:42.182Z,29.81
2019-03-18T09:56:09.701Z,30.15
2019-03-18T09:58:37.243Z,29.67
2019-03-18T10:01:04.831Z,30.04
2019-03-18T10:03:32.302Z,29.34
2019-03-18T10:05:59.826Z,29.39
2019-03-18T10:08:27.225Z,29.12
2019-03-18T10:10:54.927Z,28.81
2019-03-18T10:13:22.439Z,28.69
2019-03-18T10:15:49.849Z,29.05
2019-03-18T10:18:17.407Z,29.12
2019-03-18T10:20:44.935Z,29.87
2019-03-18T10:23:12.434Z,29.79
2019-03-18T10:25:39.974Z,28.74
2019-03-18T10:28:07.618Z,28.80
2019-03-18T10:30:35.167Z,28.43
2019-03-18T10:33:02.697Z,28.03
2019-03-18T10:35:30.224Z,27.68
2019-03-18T10:37:57.740Z,27.46
2019-03-18T10:40:25.289Z,27.09
2019-03-18T10:42:52.979Z,26.54
2019-03-18T10:45:20.421Z,26.17
2019-03-18T10:47:47.964Z,25.73
2019-03-18T10:50:15.450Z,25.96
2019-03-18T10:52:43.109Z,24.98
2019-03-18T10:55:10.766Z,25.37
2019-03-18T10:57:38.202Z,25.06
2019-03-18T11:00:06.805Z,24.71
2019-03-18T11:02:34.322Z,24.36
2019-03-18T11:05:01.908Z,24.51
2019-03-18T11:07:29.444Z,24.34
2019-03-18T11:09:56.884Z,24.43
2019-03-18T11:12:24.407Z,24.67
2019-03-18T11:14:52.463Z,24.50
2019-03-18T11:17:19.895Z,24.39
2019-03-18T11:19:57.882Z,24.45
2019-03-18T11:22:16.824Z,24.49
2019-03-18T11:24:44.334Z,24.08
2019-03-18T11:27:11.788Z,24.03
2019-03-18T11:29:39.224Z,23.73
2019-03-18T11:32:06.661Z,23.96
2019-03-18T11:34:34.187Z,23.50
2019-03-18T11:37:01.680Z,23.44
2019-03-18T11:39:29.254Z,22.87
2019-03-18T11:41:56.783Z,22.49
2019-03-18T11:44:24.287Z,22.63
2019-03-18T11:46:51.771Z,22.59
2019-03-18T11:49:19.314Z,22.64
2019-03-18T11:51:47.390Z,22.71
2019-03-18T11:54:14.972Z,22.33
2019-03-18T11:56:43.660Z,22.32
2019-03-18T11:59:11.236Z,22.47
2019-03-18T12:01:38.847Z,22.44
2019-03-18T12:04:06.380Z,22.40
2019-03-18T12:06:33.962Z,22.18
2019-03-18T12:09:01.493Z,22.14
2019-03-18T12:11:29.042Z,21.83
2019-03-18T12:13:56.561Z,22.09
2019-03-18T12:16:23.993Z,21.66
2019-03-18T12:18:51.536Z,21.92
2019-03-18T12:21:19.090Z,21.86
2019-03-18T12:23:46.652Z,21.66
2019-03-18T12:26:14.245Z,21.62
2019-03-18T12:28:41.875Z,21.56
2019-03-18T12:31:09.374Z,21.86
2019-03-18T12:33:36.934Z,21.75
2019-03-18T12:36:04.455Z,21.36
2019-03-18T12:38:31.981Z,21.71
2019-03-18T12:40:59.564Z,20.63
2019-03-18T12:43:28.622Z,20.76
2019-03-18T12:45:56.054Z,20.68
2019-03-18T12:48:23.520Z,20.51
2019-03-18T12:50:56.316Z,20.66
2019-03-18T12:53:22.311Z,20.33
2019-03-18T12:55:52.825Z,20.09
2019-03-18T12:58:19.565Z,20.27
2019-03-18T13:00:47.099Z,20.51
2019-03-18T13:03:14.688Z,20.19
2019-03-18T13:05:42.274Z,20.58
2019-03-18T13:08:09.765Z,19.62
2019-03-18T13:10:37.323Z,19.27
2019-03-18T13:13:04.894Z,19.63
2019-03-18T13:15:32.388Z,19.38
2019-03-18T13:17:59.924Z,19.53
2019-03-18T13:20:27.462Z,19.30
2019-03-18T13:22:54.943Z,19.49
2019-03-18T13:25:23.156Z,19.27
2019-03-18T13:27:50.696Z,19.62
2019-03-18T13:30:18.460Z,19.43
2019-03-18T13:32:46.103Z,19.80
2019-03-18T13:35:13.900Z,19.46
2019-03-18T13:37:41.687Z,19.40
2019-03-18T13:40:09.428Z,19.75
2019-03-18T13:42:36.947Z,19.01
2019-03-18T13:45:05.335Z,19.02
2019-03-18T13:47:32.738Z,18.70
2019-03-18T13:50:00.415Z,18.67
2019-03-18T13:52:29.050Z,18.71
2019-03-18T13:54:56.588Z,18.71
2019-03-18T13:57:24.086Z,18.94
2019-03-18T13:59:51.722Z,18.93
2019-03-18T14:02:19.345Z,18.97
2019-03-18T14:04:46.993Z,18.36
2019-03-18T14:07:14.509Z,18.74
2019-03-18T14:09:42.023Z,18.60
2019-03-18T14:12:09.604Z,18.65
2019-03-18T14:14:37.201Z,16.82
2019-03-18T14:17:04.826Z,16.41
2019-03-18T14:19:32.353Z,15.58
2019-03-18T14:21:59.963Z,15.92
2019-03-18T14:24:27.486Z,15.92
2019-03-18T14:26:55.464Z,16.09
2019-03-18T14:29:22.963Z,16.06
2019-03-18T14:31:50.578Z,16.05
2019-03-18T14:34:18.096Z,15.38
2019-03-18T14:36:45.637Z,14.60
2019-03-18T14:39:13.449Z,13.44
2019-03-18T14:41:40.974Z,12.91
2019-03-18T14:44:08.439Z,12.78
2019-03-18T14:46:37.102Z,12.96
2019-03-18T14:49:04.712Z,13.01
2019-03-18T14:51:32.215Z,13.07
2019-03-18T14:53:59.788Z,14.16
2019-03-18T14:56:27.317Z,14.93
2019-03-18T14:58:54.798Z,15.17
2019-03-18T15:01:22.476Z,15.10
2019-03-18T15:03:50.182Z,15.31
2019-03-18T15:06:17.942Z,15.79
2019-03-18T15:08:45.413Z,16.00
2019-03-18T15:11:12.965Z,16.00
2019-03-18T15:13:40.509Z,15.75
2019-03-18T15:16:07.923Z,15.93
2019-03-18T15:18:35.452Z,16.05
2019-03-18T15:21:03.050Z,16.37
2019-03-18T15:23:30.913Z,16.37
2019-03-18T15:25:58.529Z,16.36
2019-03-18T15:28:26.329Z,16.21
2019-03-18T15:30:53.988Z,16.21
2019-03-18T15:33:21.472Z,16.74
2019-03-18T15:35:48.978Z,17.14
2019-03-18T15:38:16.383Z,17.06
2019-03-18T15:40:43.861Z,17.24
2019-03-18T15:43:11.526Z,17.51
2019-03-18T15:45:38.994Z,17.69
2019-03-18T15:48:06.507Z,18.05
2019-03-18T15:50:34.011Z,18.23
2019-03-18T15:53:01.650Z,18.55
2019-03-18T15:55:29.134Z,18.66
2019-03-18T15:57:57.324Z,18.75
2019-03-18T16:00:24.927Z,18.99
2019-03-18T16:02:52.392Z,19.21
2019-03-18T16:05:20.027Z,19.36
2019-03-18T16:07:47.775Z,19.65
2019-03-18T16:10:15.400Z,19.76
2019-03-18T16:12:43.037Z,20.01
2019-03-18T16:15:10.891Z,20.18
2019-03-18T16:17:41.425Z,20.53
2019-03-18T16:20:09.134Z,21.16
2019-03-18T16:22:36.549Z,21.96
2019-03-18T16:25:04.656Z,22.42
2019-03-18T16:27:32.130Z,22.91
2019-03-18T16:29:59.715Z,23.63
2019-03-18T16:32:27.181Z,23.49
2019-03-18T16:34:54.722Z,23.82
2019-03-18T16:37:22.191Z,24.19
2019-03-18T16:39:49.735Z,24.48
2019-03-18T16:42:17.136Z,24.80
2019-03-18T16:44:44.640Z,25.08
2019-03-18T16:47:12.171Z,25.51
2019-03-18T16:49:39.639Z,25.91
2019-03-18T16:52:07.265Z,26.20
2019-03-18T16:54:34.815Z,26.64
2019-03-18T16:57:02.364Z,26.97
2019-03-18T16:59:29.892Z,26.16
2019-03-18T17:01:57.427Z,26.38
2019-03-18T17:04:25.009Z,26.41
2019-03-18T17:06:52.946Z,26.89
2019-03-18T17:09:20.762Z,26.75
2019-03-18T17:11:48.424Z,27.66
2019-03-18T17:14:16.206Z,28.58
2019-03-18T17:16:47.684Z,28.82
2019-03-18T17:19:15.284Z,29.16
2019-03-18T17:21:42.800Z,30.11
2019-03-18T17:24:10.324Z,30.54
2019-03-18T17:26:37.829Z,31.20
2019-03-18T17:29:05.249Z,31.56
2019-03-18T17:31:32.964Z,31.71
2019-03-18T17:34:00.478Z,31.68
2019-03-18T17:36:28.092Z,31.27
2019-03-18T17:38:55.600Z,31.32
2019-03-18T17:41:23.003Z,31.44
2019-03-18T17:43:50.495Z,31.78
2019-03-18T17:46:17.953Z,31.74
2019-03-18T17:48:45.543Z,32.05
2019-03-18T17:51:13.131Z,32.18
2019-03-18T17:53:40.765Z,31.57
2019-03-18T17:56:08.426Z,31.02
2019-03-18T17:58:36.182Z,31.04
2019-03-18T18:01:04.785Z,30.92
2019-03-18T18:03:32.425Z,30.80
2019-03-18T18:05:59.920Z,30.53
2019-03-18T18:08:27.450Z,30.87
2019-03-18T18:10:55.060Z,30.91
2019-03-18T18:13:22.597Z,31.02
2019-03-18T18:15:50.143Z,31.41
2019-03-18T18:18:17.721Z,31.62
2019-03-18T18:20:45.291Z,32.08
2019-03-18T18:23:14.777Z,31.84
2019-03-18T18:25:42.485Z,32.10
2019-03-18T18:28:10.054Z,32.36
2019-03-18T18:30:37.570Z,32.08
2019-03-18T18:33:07.792Z,32.38
2019-03-18T18:35:34.534Z,33.92
2019-03-18T18:38:02.362Z,32.74
2019-03-18T18:40:30.099Z,32.38
2019-03-18T18:42:57.886Z,32.59
2019-03-18T18:45:25.268Z,33.43
2019-03-18T18:47:52.778Z,33.75
2019-03-18T18:50:20.410Z,34.07
2019-03-18T18:52:49.128Z,34.58
2019-03-18T18:55:17.468Z,34.60
2019-03-18T18:57:44.950Z,34.68
2019-03-18T19:00:14.150Z,35.06
2019-03-18T19:02:41.778Z,35.96
2019-03-18T19:05:10.599Z,36.45
2019-03-18T19:07:38.720Z,37.15
2019-03-18T19:10:08.403Z,37.59
2019-03-18T19:12:35.978Z,37.89
2019-03-18T19:15:04.037Z,38.02
2019-03-18T19:17:31.524Z,38.24
2019-03-18T19:19:59.001Z,38.68
2019-03-18T19:22:26.804Z,39.19
2019-03-18T19:24:54.676Z,39.53
2019-03-18T19:27:22.116Z,39.78
2019-03-18T19:29:49.651Z,40.23
2019-03-18T19:32:17.469Z,40.63
2019-03-18T19:34:49.187Z,40.55
2019-03-18T19:37:16.634Z,40.04
2019-03-18T19:39:44.150Z,40.72
2019-03-18T19:42:12.475Z,41.21
2019-03-18T19:44:40.080Z,41.56
2019-03-18T19:47:07.604Z,41.80
2019-03-18T19:49:36.554Z,42.29
2019-03-18T19:52:04.213Z,42.40
2019-03-18T19:54:32.839Z,42.48
2019-03-18T19:57:00.750Z,42.52
2019-03-18T19:59:28.261Z,42.46
2019-03-18T20:01:55.738Z,42.56
2019-03-18T20:04:23.578Z,42.60
2019-03-18T20:06:51.127Z,42.67
2019-03-18T20:09:19.180Z,43.03
2019-03-18T20:11:46.748Z,43.33
2019-03-18T20:14:14.511Z,43.46
2019-03-18T20:16:42.961Z,43.88
2019-03-18T20:19:10.421Z,44.35
2019-03-18T20:21:37.899Z,44.76
2019-03-18T20:24:05.407Z,44.91
2019-03-18T20:26:33.261Z,44.91
2019-03-18T20:29:01.136Z,44.78
2019-03-18T20:31:28.698Z,44.60
2019-03-18T20:33:56.183Z,44.87
2019-03-18T20:36:24.021Z,45.21
2019-03-18T20:38:51.448Z,45.54
2019-03-18T20:41:19.315Z,46.21
2019-03-18T20:43:47.086Z,46.37
2019-03-18T20:46:14.524Z,46.38
2019-03-18T20:48:42.371Z,46.44
2019-03-18T20:51:09.927Z,46.94
2019-03-18T20:53:37.440Z,46.63
2019-03-18T20:56:05.001Z,46.93
2019-03-18T20:58:32.479Z,46.85
2019-03-18T21:00:59.919Z,47.29
2019-03-18T21:03:27.347Z,47.40
2019-03-18T21:05:54.861Z,47.71
2019-03-18T21:08:22.437Z,46.83
2019-03-18T21:10:49.892Z,47.57
2019-03-18T21:13:17.357Z,47.84
2019-03-18T21:15:44.981Z,48.06
2019-03-18T21:18:12.501Z,48.13
2019-03-18T21:20:40.107Z,48.46
2019-03-18T21:23:08.486Z,47.90
2019-03-18T21:25:36.019Z,48.01
2019-03-18T21:28:03.576Z,48.04
2019-03-18T21:30:31.098Z,48.07
2019-03-18T21:32:59.642Z,47.45
2019-03-18T21:35:27.162Z,47.93
2019-03-18T21:37:54.637Z,47.47
2019-03-18T21:40:22.234Z,46.70
2019-03-18T21:42:49.848Z,46.63
2019-03-18T21:45:17.368Z,46.63
2019-03-18T21:47:44.897Z,46.37
2019-03-18T21:50:13.034Z,46.77
2019-03-18T21:52:40.854Z,47.21
2019-03-18T21:55:08.551Z,47.86
2019-03-18T21:57:36.111Z,48.76
2019-03-18T22:00:04.523Z,48.50
2019-03-18T22:02:32.214Z,49.96
2019-03-18T22:04:59.710Z,49.27
2019-03-18T22:07:27.165Z,49.04
2019-03-18T22:09:54.687Z,49.58
2019-03-18T22:12:22.187Z,49.51
2019-03-18T22:14:49.644Z,48.74
2019-03-18T22:17:17.140Z,48.29
2019-03-18T22:19:44.662Z,48.60
2019-03-18T22:22:12.170Z,48.72
2019-03-18T22:24:45.395Z,48.69
2019-03-18T22:27:09.019Z,48.02
2019-03-18T22:29:36.529Z,47.74
2019-03-18T22:32:03.959Z,47.31
2019-03-18T22:34:31.468Z,47.60
2019-03-18T22:36:58.988Z,47.52
2019-03-18T22:39:26.507Z,47.10
2019-03-18T22:41:53.965Z,46.97
2019-03-18T22:44:21.396Z,47.69
2019-03-18T22:46:48.863Z,47.63
2019-03-18T22:49:16.376Z,48.53
2019-03-18T22:51:43.856Z,50.27
2019-03-18T22:54:11.328Z,50.36
2019-03-18T22:56:38.765Z,51.52
2019-03-18T22:59:06.402Z,50.56
2019-03-18T23:01:33.955Z,50.50
2019-03-18T23:04:02.672Z,50.97
2019-03-18T23:06:30.263Z,51.38
2019-03-18T23:08:57.787Z,51.71
2019-03-18T23:11:25.332Z,51.17
2019-03-18T23:13:52.907Z,50.29
2019-03-18T23:16:20.366Z,49.33
2019-03-18T23:18:47.933Z,48.63
2019-03-18T23:21:15.467Z,48.52
2019-03-18T23:23:42.955Z,48.05
2019-03-18T23:26:10.346Z,48.96
2019-03-18T23:28:37.810Z,48.62
2019-03-18T23:31:05.277Z,48.55
2019-03-18T23:33:32.776Z,48.61
2019-03-18T23:36:00.313Z,48.36
2019-03-18T23:38:27.788Z,48.78
2019-03-18T23:40:55.307Z,48.39
2019-03-18T23:43:22.786Z,48.29
2019-03-18T23:45:50.187Z,48.64
2019-03-18T23:48:17.669Z,49.62
2019-03-18T23:50:45.194Z,49.18
2019-03-18T23:53:12.658Z,49.22
2019-03-18T23:55:40.186Z,49.96
2019-03-18T23:58:09.187Z,50.26
